createdAt,value
2022-09-23T00:02:10.771Z,100293.06
2022-09-23T00:04:37.762Z,100293.31
2022-09-23T00:07:04.497Z,100290.34
2022-09-23T00:09:31.397Z,100299.31
2022-09-23T00:11:58.422Z,100294.47
2022-09-23T00:14:25.095Z,100288.13
2022-09-23T00:16:51.740Z,100287.81
2022-09-23T00:19:18.694Z,100285.19
2022-09-23T00:21:45.377Z,100288.16
2022-09-23T00:24:12.013Z,100282.81
2022-09-23T00:26:38.895Z,100282.38
2022-09-23T00:29:05.577Z,100278.13
2022-09-23T00:31:32.183Z,100280.56
2022-09-23T00:34:00.342Z,100278.84
2022-09-23T00:36:27.665Z,100267.19
2022-09-23T00:38:55.423Z,100268.56
2022-09-23T00:41:22.553Z,100271.97
2022-09-23T00:43:49.166Z,100264.59
2022-09-23T00:46:20.694Z,100260.06
2022-09-23T00:48:48.467Z,100256.75
2022-09-23T00:51:17.895Z,100260.97
2022-09-23T00:53:45.942Z,100258.16
2022-09-23T00:56:12.962Z,100255.88
2022-09-23T00:58:40.116Z,100251.38
2022-09-23T01:01:06.848Z,100255.72
2022-09-23T01:03:33.837Z,100258.19
2022-09-23T01:06:00.509Z,100263.38
2022-09-23T01:08:27.229Z,100261.47
2022-09-23T01:11:10.399Z,100263.53
2022-09-23T01:13:52.485Z,100263.34
2022-09-23T01:16:25.216Z,100260.28
2022-09-23T01:18:55.126Z,100251.88
2022-09-23T01:21:37.331Z,100253.03
2022-09-23T01:24:16.361Z,100261.59
2022-09-23T01:26:46.266Z,100265.97
2022-09-23T01:29:18.948Z,100263.09
2022-09-23T01:31:48.976Z,100264.47
2022-09-23T01:34:17.989Z,100259.72
2022-09-23T01:36:47.282Z,100263.91
2022-09-23T01:39:17.044Z,100261.75
2022-09-23T01:41:47.253Z,100266.31
2022-09-23T01:44:34.881Z,100264.44
2022-09-23T01:47:08.155Z,100266.72
2022-09-23T01:49:55.322Z,100261.81
2022-09-23T01:52:40.742Z,100263.34
2022-09-23T01:55:10.866Z,100256.34
2022-09-23T01:57:40.908Z,100255.00
2022-09-23T02:00:09.369Z,100263.94
2022-09-23T02:02:44.325Z,100259.31
2022-09-23T02:05:12.531Z,100252.50
2022-09-23T02:07:59.429Z,100257.84
2022-09-23T02:10:32.188Z,100262.62
2022-09-23T02:13:00.011Z,100257.87
2022-09-23T02:15:29.244Z,100258.81
2022-09-23T02:17:58.811Z,100255.56
2022-09-23T02:20:28.159Z,100251.66
2022-09-23T02:22:56.899Z,100259.97
2022-09-23T02:25:25.841Z,100252.97
2022-09-23T02:27:57.125Z,100256.22
2022-09-23T02:30:28.014Z,100260.38
2022-09-23T02:32:58.045Z,100248.19
2022-09-23T02:35:25.595Z,100247.81
2022-09-23T02:38:10.947Z,100251.63
2022-09-23T02:40:40.098Z,100253.13
2022-09-23T02:43:09.616Z,100257.09
2022-09-23T02:45:39.091Z,100252.12
2022-09-23T02:48:10.938Z,100253.78
2022-09-23T02:50:37.661Z,100255.22
2022-09-23T02:53:04.787Z,100260.59
2022-09-23T02:55:32.452Z,100260.66
2022-09-23T02:58:02.923Z,100256.78
2022-09-23T03:00:37.009Z,100260.31
2022-09-23T03:03:04.061Z,100258.69
2022-09-23T03:05:31.783Z,100251.63
2022-09-23T03:08:12.907Z,100249.25
2022-09-23T03:11:04.398Z,100245.78
2022-09-23T03:14:16.858Z,100253.94
2022-09-23T03:16:47.773Z,100246.87
2022-09-23T03:19:23.501Z,100256.94
2022-09-23T03:21:56.854Z,100256.38
2022-09-23T03:24:23.877Z,100255.66
2022-09-23T03:26:50.772Z,100255.47
2022-09-23T03:29:17.887Z,100260.72
2022-09-23T03:31:44.567Z,100256.53
2022-09-23T03:34:16.575Z,100256.63
2022-09-23T03:36:57.286Z,100261.06
2022-09-23T03:39:26.895Z,100258.16
2022-09-23T03:41:53.586Z,100261.16
2022-09-23T03:44:21.651Z,100261.06
2022-09-23T03:46:51.543Z,100252.03
2022-09-23T03:49:19.941Z,100251.44
2022-09-23T03:51:46.627Z,100255.00
2022-09-23T03:54:13.616Z,100254.63
2022-09-23T03:56:40.452Z,100255.94
2022-09-23T03:59:07.150Z,100252.91
2022-09-23T04:01:34.197Z,100253.94
2022-09-23T04:04:01.371Z,100248.19
2022-09-23T04:06:28.147Z,100256.16
2022-09-23T04:08:54.805Z,100261.06
2022-09-23T04:11:21.810Z,100257.13
2022-09-23T04:13:48.839Z,100258.22
2022-09-23T04:16:15.653Z,100261.31
2022-09-23T04:18:42.954Z,100264.59
2022-09-23T04:21:10.077Z,100259.50
2022-09-23T04:23:39.102Z,100260.22
2022-09-23T04:26:07.198Z,100266.31
2022-09-23T04:28:34.400Z,100263.59
2022-09-23T04:31:05.051Z,100262.72
2022-09-23T04:33:32.050Z,100260.16
2022-09-23T04:35:58.731Z,100261.59
2022-09-23T04:38:25.578Z,100259.03
2022-09-23T04:40:52.548Z,100265.66
2022-09-23T04:43:23.064Z,100272.75
2022-09-23T04:46:15.951Z,100270.16
2022-09-23T04:48:43.032Z,100277.44
2022-09-23T04:51:13.632Z,100282.03
2022-09-23T04:53:41.031Z,100273.59
2022-09-23T04:56:10.153Z,100273.75
2022-09-23T04:58:37.055Z,100275.09
2022-09-23T05:01:10.280Z,100275.41
2022-09-23T05:03:37.318Z,100282.31
2022-09-23T05:06:04.140Z,100282.31
2022-09-23T05:08:31.407Z,100290.47
2022-09-23T05:10:58.940Z,100288.31
2022-09-23T05:13:25.998Z,100296.75
2022-09-23T05:16:04.940Z,100296.91
2022-09-23T05:18:32.467Z,100296.44
2022-09-23T05:20:59.112Z,100297.16
2022-09-23T05:23:25.848Z,100292.97
2022-09-23T05:25:57.258Z,100296.41
2022-09-23T05:28:23.946Z,100295.22
2022-09-23T05:30:50.618Z,100296.34
2022-09-23T05:33:17.603Z,100300.19
2022-09-23T05:35:47.489Z,100300.38
2022-09-23T05:38:16.551Z,100302.03
2022-09-23T05:40:43.735Z,100304.75
2022-09-23T05:43:10.815Z,100308.44
2022-09-23T05:45:37.569Z,100301.31
2022-09-23T05:48:05.036Z,100302.53
2022-09-23T05:50:32.228Z,100300.53
2022-09-23T05:52:59.771Z,100294.97
2022-09-23T05:55:27.115Z,100296.34
2022-09-23T05:57:53.847Z,100300.59
2022-09-23T06:00:20.712Z,100296.69
2022-09-23T06:02:48.812Z,100298.78
2022-09-23T06:05:16.366Z,100297.75
2022-09-23T06:07:43.163Z,100299.81
2022-09-23T06:10:10.073Z,100293.25
2022-09-23T06:12:36.816Z,100295.97
2022-09-23T06:15:03.626Z,100305.94
2022-09-23T06:17:30.622Z,100302.63
2022-09-23T06:19:57.350Z,100298.63
2022-09-23T06:22:24.727Z,100301.22
2022-09-23T06:24:51.662Z,100298.75
2022-09-23T06:27:18.392Z,100299.09
2022-09-23T06:29:45.045Z,100290.28
2022-09-23T06:32:11.968Z,100304.44
2022-09-23T06:34:49.613Z,100306.16
2022-09-23T06:37:20.399Z,100304.69
2022-09-23T06:39:47.546Z,100303.72
2022-09-23T06:42:15.882Z,100310.69
2022-09-23T06:44:43.036Z,100310.19
2022-09-23T06:47:09.709Z,100318.00
2022-09-23T06:49:36.886Z,100310.59
2022-09-23T06:52:05.138Z,100315.88
2022-09-23T06:54:31.873Z,100307.94
2022-09-23T06:56:58.549Z,100300.66
2022-09-23T06:59:25.564Z,100310.69
2022-09-23T07:01:52.422Z,100304.09
2022-09-23T07:04:19.174Z,100301.59
2022-09-23T07:06:46.263Z,100294.97
2022-09-23T07:09:12.919Z,100302.03
2022-09-23T07:11:39.780Z,100300.44
2022-09-23T07:14:06.835Z,100305.72
2022-09-23T07:16:33.632Z,100305.66
2022-09-23T07:19:00.286Z,100302.16
2022-09-23T07:21:27.925Z,100298.59
2022-09-23T07:23:55.267Z,100307.28
2022-09-23T07:26:22.819Z,100311.72
2022-09-23T07:28:56.865Z,100307.00
2022-09-23T07:31:36.637Z,100304.13
2022-09-23T07:34:06.495Z,100309.13
2022-09-23T07:36:33.674Z,100316.84
2022-09-23T07:39:03.793Z,100311.72
2022-09-23T07:41:31.520Z,100308.16
2022-09-23T07:44:00.155Z,100306.19
2022-09-23T07:46:27.777Z,100309.62
2022-09-23T07:48:55.065Z,100305.41
2022-09-23T07:51:26.773Z,100302.66
2022-09-23T07:53:53.866Z,100301.25
2022-09-23T07:56:22.110Z,100302.19
2022-09-23T07:59:00.978Z,100302.94
2022-09-23T08:01:29.439Z,100306.62
2022-09-23T08:03:57.324Z,100307.06
2022-09-23T08:06:23.984Z,100303.03
2022-09-23T08:08:53.321Z,100305.59
2022-09-23T08:11:20.672Z,100309.84
2022-09-23T08:13:47.796Z,100303.91
2022-09-23T08:16:14.659Z,100299.53
2022-09-23T08:18:45.325Z,100308.19
2022-09-23T08:21:12.213Z,100304.16
2022-09-23T08:26:22.318Z,100292.31
2022-09-23T08:28:50.093Z,100304.00
2022-09-23T08:31:16.859Z,100296.59
2022-09-23T08:33:44.478Z,100300.44
2022-09-23T08:36:11.200Z,100292.41
2022-09-23T08:38:37.872Z,100297.16
2022-09-23T08:41:25.414Z,100296.59
2022-09-23T08:43:56.675Z,100287.69
2022-09-23T08:46:27.928Z,100296.47
2022-09-23T08:48:54.659Z,100296.72
2022-09-23T08:51:35.957Z,100298.19
2022-09-23T08:54:03.025Z,100294.72
2022-09-23T08:56:30.866Z,100295.19
2022-09-23T08:59:10.499Z,100294.37
2022-09-23T09:01:44.846Z,100289.22
2022-09-23T09:04:27.967Z,100290.59
2022-09-23T09:07:31.934Z,100288.09
2022-09-23T09:10:29.426Z,100295.63
2022-09-23T09:13:02.240Z,100293.63
2022-09-23T09:15:29.556Z,100288.16
2022-09-23T09:18:01.208Z,100287.09
2022-09-23T09:20:42.702Z,100296.03
2022-09-23T09:23:19.630Z,100285.34
2022-09-23T09:25:48.987Z,100287.87
2022-09-23T09:28:24.614Z,100288.31
2022-09-23T09:30:53.656Z,100283.66
2022-09-23T09:33:21.523Z,100281.09
2022-09-23T09:36:08.998Z,100275.34
2022-09-23T09:38:36.605Z,100278.63
2022-09-23T09:41:17.802Z,100270.06
2022-09-23T09:43:48.440Z,100268.81
2022-09-23T09:46:33.098Z,100274.28
2022-09-23T09:49:03.692Z,100274.28
2022-09-23T09:51:30.403Z,100262.56
2022-09-23T09:54:16.113Z,100269.06
2022-09-23T09:56:45.077Z,100258.00
2022-09-23T09:59:15.246Z,100259.34
2022-09-23T10:01:42.031Z,100254.81
2022-09-23T10:04:29.422Z,100256.44
2022-09-23T10:07:09.864Z,100248.22
2022-09-23T10:09:37.423Z,100249.66
2022-09-23T10:12:04.157Z,100254.88
2022-09-23T10:14:31.530Z,100254.22
2022-09-23T10:17:02.352Z,100248.34
2022-09-23T10:19:29.137Z,100247.84
2022-09-23T10:21:56.992Z,100245.97
2022-09-23T10:24:25.006Z,100242.69
2022-09-23T10:27:01.667Z,100241.28
2022-09-23T10:29:29.900Z,100243.03
2022-09-23T10:32:15.284Z,100245.66
2022-09-23T10:34:46.746Z,100244.41
2022-09-23T10:37:28.453Z,100257.13
2022-09-23T10:40:14.310Z,100248.72
2022-09-23T10:43:14.895Z,100246.03
2022-09-23T10:46:00.707Z,100234.25
2022-09-23T10:48:36.066Z,100238.84
2022-09-23T10:51:05.224Z,100235.47
2022-09-23T10:53:42.121Z,100240.44
2022-09-23T10:56:20.969Z,100241.56
2022-09-23T10:58:55.606Z,100249.69
2022-09-23T11:01:29.510Z,100235.78
2022-09-23T11:04:03.311Z,100240.34
2022-09-23T11:06:36.569Z,100234.09
2022-09-23T11:09:25.598Z,100228.81
2022-09-23T11:11:56.087Z,100235.84
2022-09-23T11:14:44.432Z,100230.94
2022-09-23T11:17:22.844Z,100234.19
2022-09-23T11:20:03.528Z,100231.25
2022-09-23T11:22:49.928Z,100229.66
2022-09-23T11:25:17.178Z,100225.78
2022-09-23T11:27:53.809Z,100225.84
2022-09-23T11:30:21.400Z,100219.78
2022-09-23T11:33:14.589Z,100215.34
2022-09-23T11:35:51.195Z,100215.53
2022-09-23T11:38:34.687Z,100209.41
2022-09-23T11:41:03.588Z,100208.78
2022-09-23T11:43:35.910Z,100199.66
2022-09-23T11:46:06.339Z,100194.00
2022-09-23T11:48:35.546Z,100186.91
2022-09-23T11:51:03.335Z,100195.38
2022-09-23T11:53:32.996Z,100191.53
2022-09-23T11:56:06.117Z,100192.72
2022-09-23T11:58:48.383Z,100197.63
2022-09-23T12:01:30.390Z,100188.09
2022-09-23T12:04:27.260Z,100187.81
2022-09-23T12:10:17.706Z,100188.09
2022-09-23T12:19:33.424Z,100172.28
2022-09-23T12:22:07.669Z,100172.00
2022-09-23T12:24:39.930Z,100159.56
2022-09-23T12:27:45.542Z,100158.84
2022-09-23T12:30:43.952Z,100148.25
2022-09-23T12:33:30.866Z,100146.72
2022-09-23T12:36:17.445Z,100144.72
2022-09-23T12:38:51.899Z,100140.34
2022-09-23T12:41:19.638Z,100145.09
2022-09-23T12:46:45.704Z,100142.75
2022-09-23T12:49:28.958Z,100136.06
2022-09-23T12:52:11.184Z,100132.06
2022-09-23T12:54:39.711Z,100120.22
2022-09-23T12:57:10.110Z,100119.81
2022-09-23T12:59:53.809Z,100118.63
2022-09-23T13:02:24.821Z,100113.06
2022-09-23T13:05:41.387Z,100115.19
2022-09-23T13:08:20.604Z,100109.13
2022-09-23T13:10:53.759Z,100103.38
2022-09-23T13:13:25.446Z,100103.00
2022-09-23T13:15:55.480Z,100104.00
2022-09-23T13:18:24.031Z,100097.56
2022-09-23T13:20:56.610Z,100095.16
2022-09-23T13:23:34.043Z,100101.78
2022-09-23T13:26:02.303Z,100101.00
2022-09-23T13:28:39.586Z,100105.44
2022-09-23T13:31:11.195Z,100106.72
2022-09-23T13:33:49.512Z,100100.47
2022-09-23T13:36:20.179Z,100096.69
2022-09-23T13:38:47.743Z,100105.00
2022-09-23T13:41:15.109Z,100103.75
2022-09-23T13:43:44.158Z,100099.56
2022-09-23T13:46:14.171Z,100095.75
2022-09-23T13:48:41.587Z,100093.16
2022-09-23T13:51:10.378Z,100088.53
2022-09-23T13:53:40.648Z,100092.63
2022-09-23T13:56:14.859Z,100091.87
2022-09-23T13:58:43.464Z,100084.13
2022-09-23T14:01:24.139Z,100089.06
2022-09-23T14:03:51.774Z,100086.25
2022-09-23T14:06:19.714Z,100086.75
2022-09-23T14:08:50.444Z,100088.28
2022-09-23T14:11:20.616Z,100083.75
2022-09-23T14:13:48.675Z,100087.81
2022-09-23T14:16:16.128Z,100084.41
2022-09-23T14:18:47.222Z,100074.59
2022-09-23T14:21:35.449Z,100079.06
2022-09-23T14:24:20.787Z,100076.28
2022-09-23T14:26:59.471Z,100082.38
2022-09-23T14:29:29.703Z,100068.69
2022-09-23T14:32:06.560Z,100075.19
2022-09-23T14:34:47.087Z,100073.22
2022-09-23T14:37:41.068Z,100068.38
2022-09-23T14:40:16.140Z,100071.50
2022-09-23T14:42:47.186Z,100065.25
2022-09-23T14:45:25.493Z,100069.47
2022-09-23T14:48:08.376Z,100066.31
2022-09-23T14:50:57.760Z,100067.63
2022-09-23T14:53:56.790Z,100057.34
2022-09-23T14:56:25.396Z,100065.59
2022-09-23T14:58:57.631Z,100063.06
2022-09-23T15:01:26.779Z,100056.44
2022-09-23T15:04:14.177Z,100051.38
2022-09-23T15:06:43.913Z,100055.44
2022-09-23T15:09:12.023Z,100058.72
2022-09-23T15:11:46.588Z,100050.84
2022-09-23T15:14:36.669Z,100058.13
2022-09-23T15:17:03.644Z,100061.50
2022-09-23T15:19:41.125Z,100060.69
2022-09-23T15:22:08.416Z,100062.91
2022-09-23T15:24:35.734Z,100059.12
2022-09-23T15:27:10.571Z,100059.75
2022-09-23T15:29:38.975Z,100055.78
2022-09-23T15:32:13.211Z,100054.53
2022-09-23T15:34:40.856Z,100051.00
2022-09-23T15:37:10.658Z,100054.53
2022-09-23T15:39:41.346Z,100055.97
2022-09-23T15:42:13.055Z,100050.47
2022-09-23T15:44:42.950Z,100045.50
2022-09-23T15:47:21.384Z,100042.75
2022-09-23T15:49:53.222Z,100043.56
2022-09-23T15:52:24.106Z,100049.09
2022-09-23T15:54:53.795Z,100044.84
2022-09-23T15:57:23.075Z,100048.56
2022-09-23T15:59:50.481Z,100048.56
2022-09-23T16:02:22.624Z,100050.50
2022-09-23T16:04:56.866Z,100051.28
2022-09-23T16:07:28.773Z,100042.91
2022-09-23T16:09:59.287Z,100052.59
2022-09-23T16:12:34.876Z,100049.22
2022-09-23T16:15:02.952Z,100048.75
2022-09-23T16:17:31.487Z,100054.09
2022-09-23T16:19:59.372Z,100058.78
2022-09-23T16:22:33.813Z,100054.59
2022-09-23T16:25:10.544Z,100054.34
2022-09-23T16:27:40.485Z,100056.75
2022-09-23T16:30:08.249Z,100057.53
2022-09-23T16:32:38.684Z,100056.00
2022-09-23T16:35:12.551Z,100054.16
2022-09-23T16:37:45.508Z,100056.06
2022-09-23T16:40:27.930Z,100061.19
2022-09-23T16:43:02.389Z,100059.72
2022-09-23T16:45:38.217Z,100056.34
2022-09-23T16:48:08.383Z,100066.12
2022-09-23T16:50:42.732Z,100063.69
2022-09-23T16:53:10.520Z,100067.09
2022-09-23T16:55:39.075Z,100064.69
2022-09-23T16:58:06.410Z,100059.44
2022-09-23T17:00:52.672Z,100058.81
2022-09-23T17:03:39.856Z,100062.69
2022-09-23T17:06:15.317Z,100056.72
2022-09-23T17:08:43.315Z,100054.28
2022-09-23T17:11:14.960Z,100058.56
2022-09-23T17:13:44.156Z,100056.84
2022-09-23T17:16:12.312Z,100060.38
2022-09-23T17:18:39.772Z,100055.34
2022-09-23T17:21:08.522Z,100063.22
2022-09-23T17:23:37.326Z,100059.91
2022-09-23T17:26:10.260Z,100063.44
2022-09-23T17:28:38.080Z,100063.50
2022-09-23T17:31:06.818Z,100070.47
2022-09-23T17:33:41.860Z,100067.03
2022-09-23T17:36:15.418Z,100069.62
2022-09-23T17:38:48.193Z,100067.00
2022-09-23T17:41:23.449Z,100067.13
2022-09-23T17:43:54.908Z,100073.19
2022-09-23T17:46:24.729Z,100073.19
2022-09-23T17:48:59.929Z,100072.41
2022-09-23T17:51:33.899Z,100071.56
2022-09-23T17:54:09.484Z,100076.78
2022-09-23T17:56:45.950Z,100081.09
2022-09-23T17:59:18.983Z,100080.25
2022-09-23T18:01:52.902Z,100084.63
2022-09-23T18:04:28.251Z,100080.25
2022-09-23T18:06:58.809Z,100082.88
2022-09-23T18:09:31.689Z,100088.06
2022-09-23T18:12:08.875Z,100086.28
2022-09-23T18:14:40.920Z,100095.03
2022-09-23T18:17:14.028Z,100083.72
2022-09-23T18:19:50.936Z,100093.31
2022-09-23T18:22:26.793Z,100097.66
2022-09-23T18:25:00.286Z,100095.91
2022-09-23T18:27:33.558Z,100100.25
2022-09-23T18:30:10.439Z,100094.16
2022-09-23T18:32:41.055Z,100091.53
2022-09-23T18:35:15.088Z,100090.66
2022-09-23T18:37:49.037Z,100102.00
2022-09-23T18:40:35.014Z,100095.00
2022-09-23T18:43:06.914Z,100095.00
2022-09-23T18:45:39.605Z,100100.22
2022-09-23T18:48:28.801Z,100102.69
2022-09-23T18:51:38.594Z,100104.50
2022-09-23T18:54:11.969Z,100101.94
2022-09-23T18:56:45.957Z,100102.72
2022-09-23T18:59:25.993Z,100102.69
2022-09-23T19:02:46.713Z,100107.78
2022-09-23T19:05:25.677Z,100108.81
2022-09-23T19:08:22.261Z,100102.75
2022-09-23T19:11:00.089Z,100098.34
2022-09-23T19:13:43.811Z,100105.16
2022-09-23T19:17:02.395Z,100100.00
2022-09-23T19:20:05.778Z,100098.34
2022-09-23T19:23:18.480Z,100098.31
2022-09-23T19:26:07.227Z,100093.88
2022-09-23T19:29:13.650Z,100103.38
2022-09-23T19:31:45.299Z,100094.78
2022-09-23T19:34:20.072Z,100103.44
2022-09-23T19:36:50.576Z,100105.16
2022-09-23T19:39:22.493Z,100094.75
2022-09-23T19:41:56.346Z,100098.97
2022-09-23T19:44:30.044Z,100104.94
2022-09-23T19:47:00.587Z,100098.91
2022-09-23T19:49:31.529Z,100098.91
2022-09-23T19:52:01.540Z,100096.91
2022-09-23T19:54:31.760Z,100103.91
2022-09-23T19:57:00.182Z,100103.00
2022-09-23T19:59:31.385Z,100106.34
2022-09-23T20:02:06.312Z,100101.22
2022-09-23T20:04:50.219Z,100099.59
2022-09-23T20:07:23.276Z,100099.28
2022-09-23T20:09:58.392Z,100095.84
2022-09-23T20:12:32.959Z,100094.25
2022-09-23T20:15:09.548Z,100102.81
2022-09-23T20:17:45.435Z,100101.84
2022-09-23T20:20:23.739Z,100099.19
2022-09-23T20:23:02.746Z,100094.91
2022-09-23T20:25:54.610Z,100095.72
2022-09-23T20:28:34.502Z,100091.09
2022-09-23T20:31:19.444Z,100093.91
2022-09-23T20:34:03.173Z,100097.16
2022-09-23T20:36:37.645Z,100088.56
2022-09-23T20:39:32.161Z,100105.84
2022-09-23T20:42:11.898Z,100098.78
2022-09-23T20:45:04.825Z,100093.84
2022-09-23T20:47:38.073Z,100091.94
2022-09-23T20:50:11.959Z,100087.56
2022-09-23T20:52:49.083Z,100090.09
2022-09-23T20:55:29.578Z,100084.09
2022-09-23T20:58:19.492Z,100086.53
2022-09-23T21:00:48.766Z,100083.09
2022-09-23T21:03:15.905Z,100091.47
2022-09-23T21:05:42.601Z,100089.09
2022-09-23T21:08:09.462Z,100083.63
2022-09-23T21:10:36.498Z,100081.28
2022-09-23T21:13:06.845Z,100088.13
2022-09-23T21:15:36.455Z,100084.69
2022-09-23T21:18:04.548Z,100083.66
2022-09-23T21:20:31.735Z,100084.56
2022-09-23T21:22:58.483Z,100089.69
2022-09-23T21:25:28.285Z,100088.94
2022-09-23T21:27:55.365Z,100094.47
2022-09-23T21:30:22.981Z,100087.50
2022-09-23T21:32:49.987Z,100087.31
2022-09-23T21:35:18.883Z,100088.00
2022-09-23T21:37:45.921Z,100089.72
2022-09-23T21:40:31.426Z,100101.53
2022-09-23T21:42:59.336Z,100096.53
2022-09-23T21:45:29.306Z,100096.59
2022-09-23T21:47:56.236Z,100096.31
2022-09-23T21:50:22.946Z,100102.44
2022-09-23T21:52:51.960Z,100105.13
2022-09-23T21:55:19.034Z,100094.56
2022-09-23T21:57:46.218Z,100103.09
2022-09-23T22:00:14.433Z,100103.81
2022-09-23T22:02:41.446Z,100105.66
2022-09-23T22:05:08.243Z,100102.84
2022-09-23T22:07:40.921Z,100098.56
2022-09-23T22:10:08.112Z,100103.94
2022-09-23T22:12:34.847Z,100099.41
2022-09-23T22:15:01.806Z,100095.97
2022-09-23T22:17:30.667Z,100091.56
2022-09-23T22:19:58.509Z,100097.53
2022-09-23T22:22:25.619Z,100095.16
2022-09-23T22:24:52.688Z,100101.25
2022-09-23T22:27:19.725Z,100107.81
2022-09-23T22:30:05.379Z,100098.47
2022-09-23T22:32:41.306Z,100107.56
2022-09-23T22:35:09.872Z,100097.34
2022-09-23T22:37:37.243Z,100093.78
2022-09-23T22:40:05.420Z,100092.16
2022-09-23T22:42:32.708Z,100106.72
2022-09-23T22:45:00.745Z,100105.44
2022-09-23T22:47:27.406Z,100108.88
2022-09-23T22:49:55.565Z,100102.03
2022-09-23T22:52:24.608Z,100106.78
2022-09-23T22:54:51.887Z,100108.28
2022-09-23T22:57:19.379Z,100103.44
2022-09-23T22:59:48.268Z,100103.59
2022-09-23T23:02:16.299Z,100104.53
2022-09-23T23:04:45.197Z,100105.28
2022-09-23T23:07:13.413Z,100109.75
2022-09-23T23:09:40.435Z,100101.31
2022-09-23T23:12:07.271Z,100100.34
2022-09-23T23:14:34.235Z,100107.38
2022-09-23T23:17:01.049Z,100108.66
2022-09-23T23:19:30.821Z,100102.13
2022-09-23T23:22:00.147Z,100104.31
2022-09-23T23:24:26.950Z,100101.25
2022-09-23T23:26:53.692Z,100101.44
2022-09-23T23:29:21.198Z,100096.53
2022-09-23T23:31:48.140Z,100088.53
2022-09-23T23:34:16.273Z,100099.97
2022-09-23T23:36:43.765Z,100095.66
2022-09-23T23:39:10.517Z,100094.41
2022-09-23T23:41:39.487Z,100091.47
2022-09-23T23:44:07.076Z,100089.56
2022-09-23T23:46:33.968Z,100085.25
2022-09-23T23:49:00.743Z,100081.28
2022-09-23T23:51:30.137Z,100088.31
2022-09-23T23:53:58.729Z,100084.09
2022-09-23T23:56:25.480Z,100079.66
2022-09-23T23:58:56.010Z,100082.16
